createdAt,value
2019-03-27T00:00:01.342Z,946.3
2019-03-27T00:01:01.356Z,946.3
2019-03-27T00:02:01.262Z,946.3
2019-03-27T00:03:01.132Z,946.3
2019-03-27T00:04:01.019Z,945.7
2019-03-27T00:05:01.378Z,946.3
2019-03-27T00:06:01.257Z,946.2
2019-03-27T00:07:01.156Z,946.2
2019-03-27T00:08:01.040Z,946
2019-03-27T00:09:00.934Z,946.2
2019-03-27T00:10:00.923Z,946.1
2019-03-27T00:11:00.808Z,946.2
2019-03-27T00:12:00.732Z,946.2
2019-03-27T00:13:00.625Z,946.2
2019-03-27T00:14:00.558Z,946
2019-03-27T00:15:14.580Z,946.2
2019-03-27T00:16:14.543Z,946.1
2019-03-27T00:17:14.440Z,946.1
2019-03-27T00:18:14.361Z,946.1
2019-03-27T00:19:14.265Z,946.2
2019-03-27T00:20:14.146Z,946.1
2019-03-27T00:21:14.057Z,946.1
2019-03-27T00:22:13.970Z,946.2
2019-03-27T00:23:13.938Z,946
2019-03-27T00:24:13.849Z,944.5
2019-03-27T00:25:14.146Z,946
2019-03-27T00:26:14.014Z,946.2
2019-03-27T00:27:13.906Z,946.2
2019-03-27T00:28:13.817Z,946.1
2019-03-27T00:29:13.707Z,946.1
2019-03-27T00:30:13.598Z,946.1
2019-03-27T00:31:13.491Z,946.1
2019-03-27T00:32:13.400Z,946.1
2019-03-27T00:33:13.326Z,946.2
2019-03-27T00:34:13.224Z,946.2
2019-03-27T00:35:13.536Z,946.2
2019-03-27T00:36:13.432Z,946.1
2019-03-27T00:37:13.336Z,946.2
2019-03-27T00:38:13.234Z,946.1
2019-03-27T00:39:13.129Z,945.9
2019-03-27T00:40:13.046Z,946
2019-03-27T00:41:12.964Z,946.2
2019-03-27T00:42:12.848Z,946.1
2019-03-27T00:43:12.757Z,946.2
2019-03-27T00:44:12.662Z,946.2
2019-03-27T00:45:27.876Z,946.2
2019-03-27T00:46:27.592Z,946.1
2019-03-27T00:47:27.333Z,946.2
2019-03-27T00:48:27.056Z,946.1
2019-03-27T00:49:26.799Z,946.1
2019-03-27T00:50:26.528Z,946.1
2019-03-27T00:51:26.293Z,946.2
2019-03-27T00:52:26.018Z,946.1
2019-03-27T00:53:25.748Z,946.2
2019-03-27T00:54:25.474Z,946.2
2019-03-27T00:55:25.811Z,946.2
2019-03-27T00:56:25.687Z,946.1
2019-03-27T00:57:25.780Z,946.1
2019-03-27T00:58:25.661Z,946.2
2019-03-27T00:59:25.557Z,946.1
2019-03-27T01:00:25.457Z,946.2
2019-03-27T01:01:25.329Z,946.1
2019-03-27T01:02:25.237Z,946.1
2019-03-27T01:03:25.119Z,946.2
2019-03-27T01:04:25.013Z,946.2
2019-03-27T01:05:25.383Z,946
2019-03-27T01:06:25.110Z,946.2
2019-03-27T01:07:24.851Z,946.2
2019-03-27T01:08:24.634Z,946.2
2019-03-27T01:09:24.362Z,946.2
2019-03-27T01:10:24.102Z,946.1
2019-03-27T01:11:23.851Z,946.2
2019-03-27T01:12:23.584Z,946
2019-03-27T01:13:23.299Z,946.1
2019-03-27T01:14:23.023Z,946.2
2019-03-27T01:15:23.355Z,946.2
2019-03-27T01:16:23.260Z,946.2
2019-03-27T01:17:23.154Z,946.2
2019-03-27T01:18:23.073Z,946.2
2019-03-27T01:19:22.958Z,946.2
2019-03-27T01:20:22.852Z,946.2
2019-03-27T01:21:22.758Z,946.2
2019-03-27T01:22:22.648Z,946.1
2019-03-27T01:23:22.540Z,946.2
2019-03-27T01:24:22.429Z,946.1
2019-03-27T01:25:22.774Z,945.5
2019-03-27T01:26:22.671Z,945.5
2019-03-27T01:27:22.620Z,946.1
2019-03-27T01:28:22.515Z,946.1
2019-03-27T01:29:22.393Z,946.1
2019-03-27T01:30:22.342Z,946.2
2019-03-27T01:31:22.312Z,946.1
2019-03-27T01:32:22.242Z,946.1
2019-03-27T01:33:22.125Z,946.1
2019-03-27T01:34:22.011Z,946.1
2019-03-27T01:35:22.399Z,946
2019-03-27T01:36:22.308Z,945.8
2019-03-27T01:37:22.273Z,946.1
2019-03-27T01:38:22.177Z,946.1
2019-03-27T01:39:22.049Z,946.1
2019-03-27T01:40:21.936Z,946.1
2019-03-27T01:41:21.865Z,946.1
2019-03-27T01:42:21.767Z,946.1
2019-03-27T01:43:21.657Z,946
2019-03-27T01:44:21.574Z,946
2019-03-27T01:45:21.914Z,946
2019-03-27T01:46:21.837Z,946.1
2019-03-27T01:47:21.744Z,946.1
2019-03-27T01:48:21.636Z,946.1
2019-03-27T01:49:21.534Z,946
2019-03-27T01:50:21.441Z,946
2019-03-27T01:51:21.352Z,946
2019-03-27T01:52:21.283Z,946
2019-03-27T01:53:21.244Z,946
2019-03-27T01:54:21.139Z,945.9
2019-03-27T01:55:21.560Z,945.9
2019-03-27T01:56:21.483Z,945.9
2019-03-27T01:57:21.367Z,945.7
2019-03-27T01:58:21.263Z,945.9
2019-03-27T01:59:21.143Z,945.8
2019-03-27T02:00:21.061Z,946
2019-03-27T02:01:20.966Z,945.9
2019-03-27T02:02:20.865Z,945.9
2019-03-27T02:03:20.761Z,944.2
2019-03-27T02:04:20.658Z,945.7
2019-03-27T02:05:20.975Z,945.7
2019-03-27T02:06:20.867Z,945.8
2019-03-27T02:07:20.747Z,945.9
2019-03-27T02:08:20.621Z,945.8
2019-03-27T02:09:20.611Z,945.8
2019-03-27T02:10:20.501Z,944.4
2019-03-27T02:11:20.391Z,945.7
2019-03-27T02:12:20.273Z,945.8
2019-03-27T02:13:20.155Z,945.8
2019-03-27T02:14:20.061Z,945.8
2019-03-27T02:15:20.379Z,945.8
2019-03-27T02:16:20.126Z,945.7
2019-03-27T02:17:19.859Z,945.8
2019-03-27T02:18:19.575Z,945.8
2019-03-27T02:19:19.309Z,945.8
2019-03-27T02:20:19.040Z,945.8
2019-03-27T02:21:18.765Z,945.9
2019-03-27T02:22:18.521Z,945.7
2019-03-27T02:23:18.251Z,945.8
2019-03-27T02:24:17.973Z,945.8
2019-03-27T02:25:18.255Z,945.8
2019-03-27T02:26:18.159Z,945.8
2019-03-27T02:27:18.057Z,945.9
2019-03-27T02:28:17.957Z,945.3
2019-03-27T02:29:17.836Z,945.9
2019-03-27T02:30:17.794Z,945.9
2019-03-27T02:31:17.767Z,945.8
2019-03-27T02:32:21.952Z,945.9
2019-03-27T02:33:21.896Z,946
2019-03-27T02:34:21.985Z,945.8
2019-03-27T02:35:22.393Z,945.9
2019-03-27T02:36:22.155Z,946
2019-03-27T02:37:22.013Z,944.5
2019-03-27T02:38:21.892Z,945.9
2019-03-27T02:39:21.632Z,946
2019-03-27T02:40:21.498Z,946
2019-03-27T02:41:21.252Z,946.1
2019-03-27T02:42:20.999Z,946.1
2019-03-27T02:43:20.803Z,946
2019-03-27T02:44:20.547Z,946
2019-03-27T02:45:20.901Z,946.1
2019-03-27T02:46:26.398Z,946.1
2019-03-27T02:47:26.434Z,946.1
2019-03-27T02:48:26.465Z,946.3
2019-03-27T02:49:26.458Z,946.1
2019-03-27T02:50:26.368Z,946.2
2019-03-27T02:51:26.299Z,946.1
2019-03-27T02:52:26.232Z,944.7
2019-03-27T02:53:26.171Z,946.2
2019-03-27T02:54:26.167Z,946.2
2019-03-27T02:55:26.568Z,946.2
2019-03-27T02:56:26.484Z,946.3
2019-03-27T02:57:26.402Z,946.4
2019-03-27T02:58:26.350Z,946.1
2019-03-27T02:59:26.287Z,946.3
2019-03-27T03:00:26.227Z,946.3
2019-03-27T03:01:26.139Z,946.3
2019-03-27T03:02:26.052Z,946.2
2019-03-27T03:03:25.940Z,946.2
2019-03-27T03:04:26.003Z,946.2
2019-03-27T03:05:26.415Z,946.1
2019-03-27T03:06:26.320Z,946
2019-03-27T03:07:26.381Z,945.9
2019-03-27T03:08:26.289Z,945.9
2019-03-27T03:09:26.272Z,946
2019-03-27T03:10:26.198Z,946
2019-03-27T03:11:26.167Z,946
2019-03-27T03:12:26.086Z,945.9
2019-03-27T03:13:26.018Z,945.9
2019-03-27T03:14:25.941Z,945.7
2019-03-27T03:15:26.390Z,945.8
2019-03-27T03:16:44.170Z,945.9
2019-03-27T03:17:44.075Z,945.8
2019-03-27T03:18:44.000Z,944.3
2019-03-27T03:19:43.937Z,945.9
2019-03-27T03:20:43.847Z,946
2019-03-27T03:21:43.768Z,946
2019-03-27T03:22:43.701Z,945.9
2019-03-27T03:23:43.634Z,946
2019-03-27T03:24:43.559Z,946
2019-03-27T03:25:43.958Z,946
2019-03-27T03:26:43.717Z,946
2019-03-27T03:27:43.508Z,945.9
2019-03-27T03:28:43.271Z,946
2019-03-27T03:29:43.045Z,946.1
2019-03-27T03:30:42.876Z,946.1
2019-03-27T03:31:42.681Z,946.1
2019-03-27T03:32:42.529Z,946
2019-03-27T03:33:42.329Z,946.1
2019-03-27T03:34:42.367Z,945.9
2019-03-27T03:35:42.727Z,946
2019-03-27T03:36:42.490Z,944.7
2019-03-27T03:37:42.239Z,945.9
2019-03-27T03:38:41.963Z,945.9
2019-03-27T03:39:41.726Z,946
2019-03-27T03:40:41.458Z,946
2019-03-27T03:41:41.211Z,946
2019-03-27T03:42:40.943Z,946
2019-03-27T03:43:40.688Z,946
2019-03-27T03:44:40.457Z,946.1
2019-03-27T03:45:40.797Z,945.9
2019-03-27T03:46:40.747Z,946
2019-03-27T03:47:40.765Z,945.9
2019-03-27T03:48:40.826Z,945.8
2019-03-27T03:49:40.759Z,946
2019-03-27T03:50:40.768Z,946
2019-03-27T03:51:40.669Z,945.9
2019-03-27T03:52:40.570Z,946
2019-03-27T03:53:40.482Z,945.9
2019-03-27T03:54:40.394Z,946
2019-03-27T03:55:40.862Z,945.8
2019-03-27T03:56:40.611Z,945.9
2019-03-27T03:57:40.347Z,946
2019-03-27T03:58:40.237Z,946
2019-03-27T03:59:39.992Z,946
2019-03-27T04:00:39.721Z,946
2019-03-27T04:01:39.465Z,945.8
2019-03-27T04:02:39.223Z,946
2019-03-27T04:03:38.979Z,946.1
2019-03-27T04:04:38.777Z,945.8
2019-03-27T04:05:39.125Z,946
2019-03-27T04:06:39.064Z,946
2019-03-27T04:07:38.958Z,946.1
2019-03-27T04:08:38.861Z,946.2
2019-03-27T04:09:38.843Z,946.1
2019-03-27T04:10:38.919Z,946.1
2019-03-27T04:11:38.808Z,946
2019-03-27T04:12:38.851Z,946.2
2019-03-27T04:13:38.760Z,946.1
2019-03-27T04:14:38.663Z,946.1
2019-03-27T04:15:39.022Z,946.2
2019-03-27T04:16:38.970Z,946.2
2019-03-27T04:17:38.946Z,946.2
2019-03-27T04:18:38.827Z,946.2
2019-03-27T04:19:38.754Z,946.2
2019-03-27T04:20:38.674Z,946.1
2019-03-27T04:21:38.602Z,946.3
2019-03-27T04:22:38.508Z,946.3
2019-03-27T04:23:38.401Z,946.2
2019-03-27T04:24:38.458Z,946.2
2019-03-27T04:26:11.741Z,946.2
2019-03-27T04:27:11.655Z,946.3
2019-03-27T04:28:11.558Z,946.2
2019-03-27T04:29:11.457Z,946.2
2019-03-27T04:30:11.397Z,946
2019-03-27T04:31:11.301Z,946.1
2019-03-27T04:32:11.204Z,946.1
2019-03-27T04:33:11.119Z,946.2
2019-03-27T04:34:11.031Z,946.2
2019-03-27T04:35:10.967Z,946.3
2019-03-27T04:36:11.399Z,946.2
2019-03-27T04:37:11.326Z,946.2
2019-03-27T04:38:11.267Z,946.2
2019-03-27T04:39:11.192Z,946.2
2019-03-27T04:40:11.189Z,946.2
2019-03-27T04:41:11.174Z,946.1
2019-03-27T04:42:11.081Z,946.3
2019-03-27T04:43:10.982Z,946
2019-03-27T04:44:10.899Z,946.3
2019-03-27T04:45:10.818Z,946.3
2019-03-27T04:46:11.163Z,946.3
2019-03-27T04:47:11.093Z,946.3
2019-03-27T04:48:10.998Z,946.2
2019-03-27T04:49:10.930Z,946.3
2019-03-27T04:50:10.909Z,946.2
2019-03-27T04:51:10.811Z,946.2
2019-03-27T04:52:10.694Z,946.3
2019-03-27T04:53:10.579Z,946.3
2019-03-27T04:54:10.477Z,946.2
2019-03-27T04:55:10.389Z,946.3
2019-03-27T04:56:10.703Z,946.2
2019-03-27T04:57:10.586Z,946.2
2019-03-27T04:58:10.469Z,946.1
2019-03-27T04:59:10.361Z,946
2019-03-27T05:00:10.279Z,946.2
2019-03-27T05:01:10.202Z,946.2
2019-03-27T05:02:10.204Z,946.1
2019-03-27T05:03:10.108Z,946.1
2019-03-27T05:04:09.986Z,945.9
2019-03-27T05:05:09.883Z,946.2
2019-03-27T05:06:10.227Z,946.1
2019-03-27T05:07:13.987Z,946.1
2019-03-27T05:08:13.937Z,946.2
2019-03-27T05:09:13.854Z,946.2
2019-03-27T05:10:13.750Z,946.2
2019-03-27T05:11:13.685Z,946.2
2019-03-27T05:12:13.667Z,946.2
2019-03-27T05:13:13.583Z,946.2
2019-03-27T05:14:13.475Z,946.2
2019-03-27T05:15:13.373Z,946.2
2019-03-27T05:16:13.705Z,946.2
2019-03-27T05:17:13.588Z,946.2
2019-03-27T05:18:13.504Z,946.3
2019-03-27T05:19:13.447Z,946.2
2019-03-27T05:20:13.326Z,946.1
2019-03-27T05:21:13.231Z,946.2
2019-03-27T05:22:13.124Z,946.3
2019-03-27T05:23:13.073Z,946.2
2019-03-27T05:24:12.977Z,946.2
2019-03-27T05:25:12.875Z,946.2
2019-03-27T05:26:13.257Z,946.3
2019-03-27T05:27:13.172Z,946.3
2019-03-27T05:28:13.056Z,946.3
2019-03-27T05:29:12.963Z,946.3
2019-03-27T05:30:13.073Z,946.3
2019-03-27T05:31:12.972Z,946.3
2019-03-27T05:32:12.891Z,946.3
2019-03-27T05:33:12.779Z,946.3
2019-03-27T05:34:12.651Z,946.4
2019-03-27T05:35:12.554Z,946.3
2019-03-27T05:36:12.910Z,946.3
2019-03-27T05:37:12.645Z,946.3
2019-03-27T05:38:12.384Z,946.2
2019-03-27T05:39:15.427Z,946.4
2019-03-27T05:40:15.158Z,946.4
2019-03-27T05:41:14.977Z,946.4
2019-03-27T05:42:14.709Z,946.4
2019-03-27T05:43:14.441Z,946.4
2019-03-27T05:44:14.204Z,946.4
2019-03-27T05:45:13.943Z,946.3
2019-03-27T05:46:14.143Z,946.4
2019-03-27T05:47:13.891Z,946.5
2019-03-27T05:48:13.616Z,946.4
2019-03-27T05:49:13.340Z,946.5
2019-03-27T05:50:13.065Z,946.4
2019-03-27T05:51:12.802Z,946.5
2019-03-27T05:52:12.538Z,946.5
2019-03-27T05:53:12.268Z,945.7
2019-03-27T05:54:11.995Z,946.5
2019-03-27T05:55:11.744Z,946.5
2019-03-27T05:56:12.081Z,946.3
2019-03-27T05:57:12.064Z,946.5
2019-03-27T05:58:11.971Z,946.5
2019-03-27T05:59:11.866Z,946.5
2019-03-27T06:00:11.790Z,946.5
2019-03-27T06:01:11.743Z,946.5
2019-03-27T06:02:11.662Z,946.5
2019-03-27T06:03:11.564Z,946.5
2019-03-27T06:04:11.454Z,946.5
2019-03-27T06:05:11.425Z,946.6
2019-03-27T06:06:11.753Z,946.6
2019-03-27T06:07:11.670Z,946.6
2019-03-27T06:08:11.582Z,946.6
2019-03-27T06:09:11.468Z,946.6
2019-03-27T06:10:11.360Z,946.6
2019-03-27T06:11:11.252Z,946.5
2019-03-27T06:12:11.176Z,946.6
2019-03-27T06:13:11.053Z,946.4
2019-03-27T06:14:10.946Z,946.6
2019-03-27T06:15:10.943Z,946.6
2019-03-27T06:16:11.284Z,946.5
2019-03-27T06:17:11.184Z,946.4
2019-03-27T06:18:14.378Z,946.4
2019-03-27T06:19:14.282Z,946.4
2019-03-27T06:20:14.186Z,946.4
2019-03-27T06:21:14.099Z,945.7
2019-03-27T06:22:16.100Z,946.6
2019-03-27T06:23:15.986Z,946.6
2019-03-27T06:24:15.872Z,946.6
2019-03-27T06:25:15.766Z,946.2
2019-03-27T06:26:16.091Z,946.7
2019-03-27T06:27:15.984Z,946.6
2019-03-27T06:28:15.876Z,946.5
2019-03-27T06:29:16.883Z,946.7
2019-03-27T06:30:16.786Z,946.7
2019-03-27T06:31:16.695Z,946.7
2019-03-27T06:32:16.611Z,946.5
2019-03-27T06:33:16.522Z,946.6
2019-03-27T06:34:16.472Z,946.7
2019-03-27T06:35:16.366Z,946.7
2019-03-27T06:36:16.705Z,946.7
2019-03-27T06:37:16.600Z,946.7
2019-03-27T06:38:16.495Z,946.6
2019-03-27T06:39:16.370Z,945.6
2019-03-27T06:40:16.258Z,946.6
2019-03-27T06:41:16.142Z,946.6
2019-03-27T06:42:16.073Z,946.5
2019-03-27T06:43:15.954Z,946.7
2019-03-27T06:44:15.844Z,946.8
2019-03-27T06:45:15.730Z,946.7
2019-03-27T06:46:16.108Z,946.6
2019-03-27T06:47:16.094Z,946.8
2019-03-27T06:48:27.435Z,946.8
2019-03-27T06:49:27.322Z,946.8
2019-03-27T06:50:27.217Z,946.8
2019-03-27T06:51:41.256Z,946.8
2019-03-27T06:52:41.185Z,946.7
2019-03-27T06:53:41.090Z,946.6
2019-03-27T06:54:40.996Z,946.7
2019-03-27T06:55:40.884Z,946.7
2019-03-27T06:56:41.180Z,946.7
2019-03-27T06:57:41.159Z,946.6
2019-03-27T06:58:55.813Z,946.6
2019-03-27T06:59:55.692Z,946.6
2019-03-27T07:00:55.582Z,946.7
2019-03-27T07:01:55.484Z,946.7
2019-03-27T07:02:55.382Z,946.7
2019-03-27T07:03:55.268Z,946.7
2019-03-27T07:04:55.154Z,946.7
2019-03-27T07:05:55.042Z,946.2
2019-03-27T07:06:55.410Z,946.7
2019-03-27T07:07:55.348Z,946.6
2019-03-27T07:08:55.254Z,946.6
2019-03-27T07:09:55.191Z,946.8
2019-03-27T07:10:55.089Z,945.5
2019-03-27T07:11:54.983Z,945.2
2019-03-27T07:12:54.959Z,946.8
2019-03-27T07:13:54.864Z,946.8
2019-03-27T07:14:54.760Z,946.8
2019-03-27T07:15:54.694Z,946.6
2019-03-27T07:16:55.016Z,946.7
2019-03-27T07:17:54.891Z,946.8
2019-03-27T07:18:54.804Z,946.9
2019-03-27T07:19:54.707Z,946.8
2019-03-27T07:20:54.599Z,946.8
2019-03-27T07:21:54.489Z,946.8
2019-03-27T07:22:54.491Z,946.8
2019-03-27T07:23:54.411Z,946.8
2019-03-27T07:24:54.306Z,946.9
2019-03-27T07:25:54.199Z,946.9
2019-03-27T07:26:54.521Z,946.8
2019-03-27T07:27:54.428Z,946.9
2019-03-27T07:28:54.395Z,946.8
2019-03-27T07:29:54.377Z,946.8
2019-03-27T07:30:54.510Z,946.9
2019-03-27T07:31:54.399Z,946.8
2019-03-27T07:32:54.319Z,946.9
2019-03-27T07:33:54.226Z,946.9
2019-03-27T07:34:54.111Z,946.4
2019-03-27T07:35:54.007Z,946.8
2019-03-27T07:36:57.127Z,946.9
2019-03-27T07:37:57.023Z,946.9
2019-03-27T07:39:12.202Z,946.9
2019-03-27T07:40:12.195Z,946.9
2019-03-27T07:41:12.087Z,947
2019-03-27T07:42:14.724Z,947
2019-03-27T07:43:14.629Z,946.9
2019-03-27T07:44:14.557Z,947
2019-03-27T07:45:14.441Z,946.8
2019-03-27T07:46:14.331Z,947
2019-03-27T07:47:14.660Z,946.7
2019-03-27T07:48:14.559Z,946.8
2019-03-27T07:49:14.463Z,947
2019-03-27T07:50:14.365Z,946.9
2019-03-27T07:51:14.277Z,946.8
2019-03-27T07:52:14.195Z,946.8
2019-03-27T07:53:14.097Z,947
2019-03-27T07:54:13.981Z,946.9
2019-03-27T07:55:20.723Z,947
2019-03-27T07:56:20.630Z,947.1
2019-03-27T07:57:20.946Z,947.1
2019-03-27T07:58:20.676Z,947
2019-03-27T07:59:20.419Z,947.1
2019-03-27T08:00:20.185Z,947
2019-03-27T08:01:19.913Z,947.1
2019-03-27T08:02:19.637Z,947.1
2019-03-27T08:03:19.360Z,947
2019-03-27T08:04:19.081Z,946.9
2019-03-27T08:05:18.813Z,947
2019-03-27T08:06:18.567Z,947.1
2019-03-27T08:07:28.043Z,947
2019-03-27T08:08:27.959Z,947
2019-03-27T08:09:27.856Z,947
2019-03-27T08:10:27.771Z,947
2019-03-27T08:11:28.316Z,947
2019-03-27T08:12:28.315Z,947
2019-03-27T08:13:28.239Z,947
2019-03-27T08:14:28.133Z,947
2019-03-27T08:15:28.087Z,947
2019-03-27T08:16:28.011Z,947
2019-03-27T08:17:28.359Z,947
2019-03-27T08:18:28.259Z,947
2019-03-27T08:19:28.161Z,947
2019-03-27T08:20:28.046Z,947
2019-03-27T08:21:31.708Z,947.1
2019-03-27T08:22:31.595Z,947
2019-03-27T08:23:31.551Z,947
2019-03-27T08:24:31.459Z,947.1
2019-03-27T08:25:31.361Z,947
2019-03-27T08:26:31.279Z,947.1
2019-03-27T08:27:31.653Z,947.1
2019-03-27T08:28:31.543Z,946.4
2019-03-27T08:29:31.461Z,947.1
2019-03-27T08:30:31.363Z,947.2
2019-03-27T08:31:31.285Z,947.3
2019-03-27T08:32:31.236Z,947.2
2019-03-27T08:33:31.137Z,947.2
2019-03-27T08:34:31.019Z,947.2
2019-03-27T08:35:30.917Z,947.2
2019-03-27T08:36:31.081Z,947.2
2019-03-27T08:37:31.511Z,947.2
2019-03-27T08:38:31.398Z,947
2019-03-27T08:39:31.289Z,947
2019-03-27T08:40:31.214Z,947
2019-03-27T08:41:31.105Z,947
2019-03-27T08:42:30.999Z,947
2019-03-27T08:43:30.891Z,947.2
2019-03-27T08:44:30.796Z,947.1
2019-03-27T08:45:30.709Z,947.2
2019-03-27T08:46:30.732Z,947.1
2019-03-27T08:47:31.101Z,947.1
2019-03-27T08:48:30.986Z,947.1
2019-03-27T08:49:30.905Z,947.1
2019-03-27T08:50:30.789Z,947.1
2019-03-27T08:51:30.705Z,947.1
2019-03-27T08:52:30.640Z,947.2
2019-03-27T08:53:30.597Z,947.1
2019-03-27T08:54:30.493Z,947.1
2019-03-27T08:55:30.406Z,947.1
2019-03-27T08:56:30.317Z,947.2
2019-03-27T08:57:30.685Z,947.1
2019-03-27T08:58:30.575Z,947.2
2019-03-27T08:59:31.195Z,947.2
2019-03-27T09:00:31.088Z,947.3
2019-03-27T09:01:30.990Z,947.2
2019-03-27T09:02:30.892Z,947.2
2019-03-27T09:03:30.784Z,947.2
2019-03-27T09:04:30.701Z,947.1
2019-03-27T09:05:30.583Z,947.2
2019-03-27T09:06:35.086Z,946.7
2019-03-27T09:07:35.476Z,947.2
2019-03-27T09:08:35.363Z,947.3
2019-03-27T09:09:35.259Z,947.3
2019-03-27T09:10:35.157Z,947.2
2019-03-27T09:11:35.074Z,947.2
2019-03-27T09:12:34.980Z,947.2
2019-03-27T09:13:34.868Z,947.2
2019-03-27T09:14:34.770Z,947.2
2019-03-27T09:15:34.660Z,947.2
2019-03-27T09:16:34.560Z,947.2
2019-03-27T09:17:34.922Z,947.1
2019-03-27T09:18:34.818Z,947.2
2019-03-27T09:19:37.190Z,947.1
2019-03-27T09:20:37.080Z,947.2
2019-03-27T09:21:36.966Z,947.2
2019-03-27T09:22:36.884Z,947.3
2019-03-27T09:23:36.770Z,947.2
2019-03-27T09:24:36.656Z,947.2
2019-03-27T09:25:36.544Z,947.3
2019-03-27T09:26:36.442Z,947.2
2019-03-27T09:27:36.790Z,947.3
2019-03-27T09:28:36.674Z,947.2
2019-03-27T09:29:36.558Z,946.6
2019-03-27T09:30:36.450Z,947.1
2019-03-27T09:31:46.213Z,947.2
2019-03-27T09:32:46.124Z,947.3
2019-03-27T09:33:46.056Z,947.2
2019-03-27T09:34:45.968Z,947.3
2019-03-27T09:35:46.182Z,947.3
2019-03-27T09:36:46.096Z,947.3
2019-03-27T09:37:46.517Z,947.3
2019-03-27T09:38:46.423Z,947.3
2019-03-27T09:39:49.008Z,947.2
2019-03-27T09:40:48.918Z,945.8
2019-03-27T09:41:48.889Z,947.3
2019-03-27T09:42:48.782Z,947.3
2019-03-27T09:43:48.704Z,947.3
2019-03-27T09:44:48.598Z,947.2
2019-03-27T09:45:48.484Z,947.2
2019-03-27T09:46:48.434Z,947.3
2019-03-27T09:47:48.762Z,947.2
2019-03-27T09:48:48.684Z,947.4
2019-03-27T09:49:50.908Z,947.3
2019-03-27T09:50:50.812Z,947.4
2019-03-27T09:51:50.720Z,947.4
2019-03-27T09:52:50.602Z,947.4
2019-03-27T09:53:54.098Z,947.3
2019-03-27T09:54:54.006Z,947.4
2019-03-27T09:55:53.908Z,947.4
2019-03-27T09:56:53.808Z,947.3
2019-03-27T09:57:54.099Z,947.3
2019-03-27T09:58:54.036Z,947.4
2019-03-27T09:59:53.929Z,947.3
2019-03-27T10:00:53.836Z,947.3
2019-03-27T10:01:53.723Z,947.3
2019-03-27T10:02:53.624Z,947.4
2019-03-27T10:03:54.634Z,947.4
2019-03-27T10:04:56.939Z,947.4
2019-03-27T10:05:56.835Z,947.5
2019-03-27T10:06:56.744Z,947.4
2019-03-27T10:07:57.074Z,947.3
2019-03-27T10:08:57.001Z,946.7
2019-03-27T10:09:56.910Z,947.5
2019-03-27T10:10:56.806Z,947.4
2019-03-27T10:11:56.700Z,947.3
2019-03-27T10:12:56.594Z,947.5
2019-03-27T10:13:56.488Z,947.4
2019-03-27T10:14:56.422Z,946
2019-03-27T10:15:56.343Z,947.4
2019-03-27T10:16:56.248Z,947.4
2019-03-27T10:17:56.567Z,947.5
2019-03-27T10:18:56.517Z,947.5
2019-03-27T10:20:05.113Z,947.5
2019-03-27T10:21:05.021Z,947.5
2019-03-27T10:22:04.992Z,947.5
2019-03-27T10:23:04.904Z,947.6
2019-03-27T10:24:04.819Z,947.5
2019-03-27T10:25:04.751Z,947.5
2019-03-27T10:26:04.638Z,947.5
2019-03-27T10:27:04.544Z,947.5
2019-03-27T10:28:04.868Z,947.5
2019-03-27T10:29:04.769Z,947.6
2019-03-27T10:30:04.689Z,947.4
2019-03-27T10:31:04.585Z,947.5
2019-03-27T10:32:04.485Z,947.5
2019-03-27T10:33:04.378Z,947.5
2019-03-27T10:34:04.255Z,947.5
2019-03-27T10:35:04.147Z,946
2019-03-27T10:36:04.060Z,947.5
2019-03-27T10:37:03.978Z,947.4
2019-03-27T10:38:04.331Z,947.4
2019-03-27T10:39:04.231Z,947.5
2019-03-27T10:40:04.147Z,947.5
2019-03-27T10:41:04.157Z,947.4
2019-03-27T10:42:04.045Z,947.5
2019-03-27T10:43:03.983Z,947.3
2019-03-27T10:44:03.905Z,947.5
2019-03-27T10:45:03.794Z,947.5
2019-03-27T10:46:03.711Z,947.5
2019-03-27T10:47:03.649Z,947.6
2019-03-27T10:48:04.113Z,947.3
2019-03-27T10:49:04.014Z,947.3
2019-03-27T10:50:18.912Z,947.5
2019-03-27T10:51:18.809Z,947.5
2019-03-27T10:52:18.718Z,947.5
2019-03-27T10:53:18.613Z,947.5
2019-03-27T10:54:18.516Z,947.5
2019-03-27T10:55:18.416Z,947.5
2019-03-27T10:56:18.313Z,947.5
2019-03-27T10:57:18.242Z,947.6
2019-03-27T10:58:18.721Z,947.5
2019-03-27T10:59:18.643Z,947.5
2019-03-27T11:00:18.379Z,947.5
2019-03-27T11:01:18.107Z,947.5
2019-03-27T11:02:17.873Z,947.5
2019-03-27T11:03:17.601Z,947.5
2019-03-27T11:04:17.327Z,947.3
2019-03-27T11:05:17.068Z,947.5
2019-03-27T11:06:16.817Z,947.5
2019-03-27T11:07:16.553Z,947.5
2019-03-27T11:08:16.866Z,947.5
2019-03-27T11:09:16.751Z,946.2
2019-03-27T11:10:16.659Z,947.5
2019-03-27T11:11:16.566Z,946.7
2019-03-27T11:12:16.497Z,947.5
2019-03-27T11:13:16.395Z,947.5
2019-03-27T11:14:16.280Z,947.5
2019-03-27T11:15:16.186Z,947.4
2019-03-27T11:16:16.138Z,947.5
2019-03-27T11:17:16.051Z,947.6
2019-03-27T11:18:16.413Z,947.5
2019-03-27T11:19:16.327Z,947.5
2019-03-27T11:20:16.275Z,947.5
2019-03-27T11:21:16.200Z,947.5
2019-03-27T11:22:16.153Z,947.4
2019-03-27T11:23:16.069Z,947.5
2019-03-27T11:24:15.973Z,947.5
2019-03-27T11:25:15.880Z,947.5
2019-03-27T11:26:15.779Z,947.5
2019-03-27T11:27:15.742Z,947.4
2019-03-27T11:28:16.097Z,947.5
2019-03-27T11:29:15.987Z,947.4
2019-03-27T11:30:15.886Z,947.2
2019-03-27T11:31:15.805Z,947.4
2019-03-27T11:32:15.684Z,947.5
2019-03-27T11:33:15.577Z,947.3
2019-03-27T11:34:15.562Z,947.5
2019-03-27T11:35:15.528Z,947.4
2019-03-27T11:36:15.440Z,947.4
2019-03-27T11:37:15.355Z,947.4
2019-03-27T11:38:15.738Z,947.4
2019-03-27T11:39:15.668Z,947.5
2019-03-27T11:40:15.565Z,947.4
2019-03-27T11:41:15.465Z,947.5
2019-03-27T11:42:15.359Z,947.4
2019-03-27T11:43:15.259Z,947.5
2019-03-27T11:44:15.231Z,947.4
2019-03-27T11:45:15.151Z,947.3
2019-03-27T11:46:15.036Z,947.3
2019-03-27T11:47:14.911Z,947.4
2019-03-27T11:48:15.220Z,947.4
2019-03-27T11:49:15.115Z,947.3
2019-03-27T11:50:15.043Z,947.4
2019-03-27T11:51:14.961Z,947.3
2019-03-27T11:52:14.851Z,947.3
2019-03-27T11:53:14.753Z,947.3
2019-03-27T11:54:14.641Z,947.3
2019-03-27T11:55:14.557Z,947.3
2019-03-27T11:56:14.485Z,947.3
2019-03-27T11:57:14.355Z,947.3
2019-03-27T11:58:15.935Z,947.3
2019-03-27T11:59:15.847Z,947.2
2019-03-27T12:00:15.724Z,947.3
2019-03-27T12:01:15.631Z,947.3
2019-03-27T12:02:15.531Z,947.2
2019-03-27T12:03:15.441Z,947
2019-03-27T12:04:15.348Z,947.2
2019-03-27T12:05:15.261Z,947.3
2019-03-27T12:06:15.171Z,947.3
2019-03-27T12:07:15.088Z,947.1
2019-03-27T12:08:15.499Z,947.3
2019-03-27T12:09:15.393Z,947.3
2019-03-27T12:10:15.289Z,947.2
2019-03-27T12:11:15.206Z,947.4
2019-03-27T12:12:15.110Z,947.2
2019-03-27T12:13:15.028Z,947.1
2019-03-27T12:14:14.937Z,947.2
2019-03-27T12:15:14.824Z,947.3
2019-03-27T12:16:14.738Z,947.2
2019-03-27T12:17:14.640Z,947.2
2019-03-27T12:18:15.007Z,947.3
2019-03-27T12:19:14.926Z,947.3
2019-03-27T12:20:14.802Z,947.2
2019-03-27T12:21:14.726Z,947.3
2019-03-27T12:22:14.648Z,947.2
2019-03-27T12:23:14.565Z,947.3
2019-03-27T12:24:14.461Z,947.2
2019-03-27T12:25:14.346Z,947.2
2019-03-27T12:26:14.239Z,947.3
2019-03-27T12:27:14.166Z,947.3
2019-03-27T12:28:14.512Z,947
2019-03-27T12:29:14.422Z,947.1
2019-03-27T12:30:14.330Z,947.1
2019-03-27T12:31:14.265Z,947.2
2019-03-27T12:32:14.191Z,947.2
2019-03-27T12:33:14.089Z,947.2
2019-03-27T12:34:13.969Z,947.3
2019-03-27T12:35:13.878Z,947.2
2019-03-27T12:36:13.771Z,947.2
2019-03-27T12:37:13.784Z,947.2
2019-03-27T12:38:14.090Z,947.2
2019-03-27T12:39:13.972Z,947.1
2019-03-27T12:40:13.882Z,947.2
2019-03-27T12:41:13.776Z,947.1
2019-03-27T12:42:13.716Z,947.2
2019-03-27T12:43:13.758Z,947.2
2019-03-27T12:44:13.644Z,947.2
2019-03-27T12:45:13.546Z,947.2
2019-03-27T12:46:13.442Z,947.2
2019-03-27T12:47:13.352Z,947.2
2019-03-27T12:48:13.631Z,947
2019-03-27T12:49:13.513Z,947.1
2019-03-27T12:50:13.406Z,947.1
2019-03-27T12:51:14.312Z,947.2
2019-03-27T12:52:14.249Z,947.1
2019-03-27T12:53:14.131Z,947.1
2019-03-27T12:54:14.036Z,947.2
2019-03-27T12:55:13.908Z,947.3
2019-03-27T12:56:13.885Z,947.1
2019-03-27T12:57:13.776Z,947.2
2019-03-27T12:58:14.194Z,947.2
2019-03-27T12:59:14.100Z,947.2
2019-03-27T13:00:14.020Z,947.1
2019-03-27T13:01:13.916Z,947.1